HSKA

Kassala Airport

Kassala, Sudan
TAF HSKA 171100Z 1712/1818 VRB03KT CAVOK
Issued Valid From Valid To
Nov-17 @ 11:00 UTC
(11 hours ago)
Nov-17 @ 12:00 UTC
(10 hours ago)
Nov-18 @ 18:00 UTC
(in 20 hours)
Nov-17 @ 12:00 to Nov-18 @ 18:00
TAF HSKA 171100Z 1712/1818 VRB03KT CAVOK
Wind Visibility Clouds Conditions
Variable at 3 knots 10,000+ meters
  • No significant clouds
TAF HSKA 171100Z 1712/1818 VRB03KT CAVOK
Issued Nov-17 @ 11:00 UTC
(11 hours ago)
Valid From Nov-17 @ 12:00 UTC
(10 hours ago)
Valid To Nov-18 @ 18:00 UTC
(in 20 hours)
Nov-17 @ 12:00 - Nov-18 @ 18:00
Wind Visibility
Variable at 3 knots 10,000+ meters
Clouds
  • No significant clouds
Conditions